Time;durP1;ratioP1;P1;durP2;ratioP2;P2;SDS_P1;SDS_P2;PMS_P1;PMS_P2;Temp;Humidity;BMP_temperature;BMP_pressure;BME280_temperature;BME280_humidity;BME280_pressure;Samples;Min_cycle;Max_cycle;Signal;HPM_P1;HPM_P2
2022/05/03 00:00:24;;;;;;;4.03;2.87;;;;;;;;;;4818212;29;20038;-86
2022/05/03 00:03:04;;;;;;;4.35;2.97;;;;;;;;;;4828293;29;20123;-82
2022/05/03 00:05:50;;;;;;;4.97;2.67;;;;;;;;;;4828616;29;20034;-81
2022/05/03 00:08:38;;;;;;;4.00;2.67;;;;;;;;;;4826527;29;20045;-83
2022/05/03 00:11:23;;;;;;;3.92;2.75;;;;;;;;;;4816510;29;20378;-83
2022/05/03 00:14:16;;;;;;;4.82;2.85;;;;;;;;;;4818380;29;20548;-86
2022/05/03 00:16:44;;;;;;;4.30;2.72;;;;;;;;;;4816704;29;20392;-85
2022/05/03 00:19:10;;;;;;;3.92;2.67;;;;;;;;;;4823339;29;20045;-82
2022/05/03 00:21:37;;;;;;;4.18;2.92;;;;;;;;;;4818568;29;20030;-83
2022/05/03 00:24:04;;;;;;;4.32;2.58;;;;;;;;;;4820684;29;20045;-83
2022/05/03 00:26:30;;;;;;;4.10;2.75;;;;;;;;;;4820602;29;20030;-81
2022/05/03 00:28:57;;;;;;;4.40;3.00;;;;;;;;;;4825916;29;20042;-80
2022/05/03 00:31:24;;;;;;;4.40;2.92;;;;;;;;;;4819682;29;20045;-82
2022/05/03 00:33:50;;;;;;;4.38;2.92;;;;;;;;;;4842195;29;20472;-82
2022/05/03 00:36:16;;;;;;;4.03;2.80;;;;;;;;;;4835946;29;20066;-81
2022/05/03 00:38:41;;;;;;;4.03;2.80;;;;;;;;;;4818723;29;20065;-81
2022/05/03 00:41:10;;;;;;;4.40;2.90;;;;;;;;;;4841377;29;20078;-82
2022/05/03 00:44:02;;;;;;;3.92;2.78;;;;;;;;;;4830954;29;20158;-84
2022/05/03 00:46:30;;;;;;;4.30;2.67;;;;;;;;;;4823181;29;20026;-82
2022/05/03 00:49:08;;;;;;;4.15;2.50;;;;;;;;;;4830715;29;20027;-86
2022/05/03 00:51:47;;;;;;;3.60;2.60;;;;;;;;;;4826872;29;20036;-82
2022/05/03 00:54:37;;;;;;;4.47;2.28;;;;;;;;;;4830358;29;20042;-86
2022/05/03 00:57:35;;;;;;;5.00;2.70;;;;;;;;;;4835267;29;20041;-86
2022/05/03 01:00:09;;;;;;;3.53;2.47;;;;;;;;;;4825838;29;20026;-87
2022/05/03 01:02:56;;;;;;;4.13;2.50;;;;;;;;;;4822193;29;20030;-84
2022/05/03 01:05:38;;;;;;;3.33;2.40;;;;;;;;;;4820858;29;20504;-84
2022/05/03 01:08:07;;;;;;;4.22;2.50;;;;;;;;;;4830556;29;20086;-81
2022/05/03 01:11:08;;;;;;;4.38;2.35;;;;;;;;;;4811103;29;20026;-83
2022/05/03 01:13:45;;;;;;;4.03;2.47;;;;;;;;;;4756562;30;20036;-87
2022/05/03 01:16:24;;;;;;;3.60;2.58;;;;;;;;;;4819819;29;20042;-81
2022/05/03 01:19:10;;;;;;;4.13;2.42;;;;;;;;;;4828362;29;20120;-83
2022/05/03 01:21:50;;;;;;;4.25;2.40;;;;;;;;;;4816207;29;20073;-82
2022/05/03 01:24:55;;;;;;;3.20;2.25;;;;;;;;;;4816963;29;20473;-86
2022/05/03 01:27:48;;;;;;;4.85;2.70;;;;;;;;;;4832610;29;20033;-82
2022/05/03 01:30:13;;;;;;;3.72;2.58;;;;;;;;;;4830225;29;21217;-81
2022/05/03 01:32:43;;;;;;;4.88;2.47;;;;;;;;;;4830265;29;20485;-81
2022/05/03 01:35:12;;;;;;;4.38;2.90;;;;;;;;;;4831080;29;20022;-83
2022/05/03 01:38:03;;;;;;;3.72;2.45;;;;;;;;;;4830895;29;20037;-83
2022/05/03 01:40:50;;;;;;;4.20;2.60;;;;;;;;;;4820222;29;20030;-80
2022/05/03 01:43:26;;;;;;;4.10;2.60;;;;;;;;;;4812701;29;20524;-83
2022/05/03 01:45:54;;;;;;;3.92;2.42;;;;;;;;;;4835662;29;20026;-82
2022/05/03 01:52:16;;;;;;;4.00;2.50;;;;;;;;;;4779554;29;20471;-83
2022/05/03 01:55:01;;;;;;;3.72;2.40;;;;;;;;;;4774068;29;20042;-86
2022/05/03 01:57:39;;;;;;;4.47;2.80;;;;;;;;;;4808804;29;20049;-82
2022/05/03 02:00:07;;;;;;;3.55;2.47;;;;;;;;;;4816393;29;20076;-81
2022/05/03 02:03:00;;;;;;;4.22;2.72;;;;;;;;;;4816595;29;20743;-82
2022/05/03 02:05:29;;;;;;;4.20;2.50;;;;;;;;;;4833047;29;20028;-82
2022/05/03 02:07:58;;;;;;;3.97;2.70;;;;;;;;;;4819320;29;20042;-83
2022/05/03 02:10:47;;;;;;;3.28;2.20;;;;;;;;;;4818656;29;20122;-87
2022/05/03 02:16:35;;;;;;;4.40;3.17;;;;;;;;;;4818991;29;20103;-83
2022/05/03 02:19:08;;;;;;;4.63;2.50;;;;;;;;;;4822555;29;20033;-84
2022/05/03 02:22:01;;;;;;;5.22;2.60;;;;;;;;;;4820279;29;20074;-81
2022/05/03 02:24:50;;;;;;;4.72;2.78;;;;;;;;;;4815369;29;20045;-81
2022/05/03 02:27:18;;;;;;;4.13;2.90;;;;;;;;;;4829433;29;20459;-86
2022/05/03 02:29:46;;;;;;;5.60;2.80;;;;;;;;;;4831419;29;20029;-86
2022/05/03 02:32:16;;;;;;;4.53;2.72;;;;;;;;;;4816524;29;20041;-81
2022/05/03 02:34:53;;;;;;;4.10;2.58;;;;;;;;;;4832097;29;20084;-82
2022/05/03 02:37:22;;;;;;;5.20;2.75;;;;;;;;;;4817387;29;20038;-83
2022/05/03 02:40:00;;;;;;;5.70;2.80;;;;;;;;;;4812814;29;20034;-86
2022/05/03 02:42:26;;;;;;;5.18;3.00;;;;;;;;;;4815244;29;20128;-82
2022/05/03 02:44:56;;;;;;;3.55;2.50;;;;;;;;;;4831578;29;20058;-83
2022/05/03 02:47:42;;;;;;;4.30;2.65;;;;;;;;;;4817706;29;20409;-83
2022/05/03 02:50:17;;;;;;;3.70;2.30;;;;;;;;;;4833071;29;20536;-83
2022/05/03 02:53:08;;;;;;;3.92;2.42;;;;;;;;;;4819781;29;20026;-86
2022/05/03 02:55:54;;;;;;;4.28;2.60;;;;;;;;;;4821615;29;20038;-83
2022/05/03 02:58:35;;;;;;;4.47;2.72;;;;;;;;;;4832583;29;20074;-83
2022/05/03 03:04:25;;;;;;;4.70;2.90;;;;;;;;;;4833719;29;20784;-81
2022/05/03 03:06:54;;;;;;;4.90;2.58;;;;;;;;;;4803450;29;20053;-81
2022/05/03 03:09:43;;;;;;;3.95;2.50;;;;;;;;;;4817027;29;20061;-81
2022/05/03 03:12:39;;;;;;;4.35;2.85;;;;;;;;;;4830534;29;20036;-81
2022/05/03 03:15:07;;;;;;;3.85;2.40;;;;;;;;;;4818774;29;20034;-81
2022/05/03 03:17:36;;;;;;;4.72;2.55;;;;;;;;;;4831603;29;20417;-81
2022/05/03 03:20:07;;;;;;;4.60;2.70;;;;;;;;;;4814003;29;20113;-81
2022/05/03 03:22:44;;;;;;;5.32;3.20;;;;;;;;;;4820641;29;20069;-86
2022/05/03 03:25:12;;;;;;;5.85;3.13;;;;;;;;;;4814590;29;20082;-81
2022/05/03 03:27:38;;;;;;;5.57;2.92;;;;;;;;;;4813483;29;20488;-81
2022/05/03 03:30:07;;;;;;;5.20;3.10;;;;;;;;;;4834383;29;20029;-83
2022/05/03 03:32:39;;;;;;;4.95;2.70;;;;;;;;;;4813772;29;20040;-83
2022/05/03 03:35:05;;;;;;;5.05;2.60;;;;;;;;;;4818395;29;20037;-84
2022/05/03 03:37:35;;;;;;;5.53;2.90;;;;;;;;;;4812824;29;20132;-82
2022/05/03 03:40:04;;;;;;;3.83;2.70;;;;;;;;;;4819119;29;20046;-83
2022/05/03 03:42:30;;;;;;;4.18;2.90;;;;;;;;;;4816795;29;20033;-81
2022/05/03 03:45:01;;;;;;;5.13;3.00;;;;;;;;;;4829588;29;20058;-85
2022/05/03 03:47:28;;;;;;;4.53;2.90;;;;;;;;;;4817103;29;20090;-81
2022/05/03 03:49:56;;;;;;;5.97;2.92;;;;;;;;;;4819529;29;20054;-83
2022/05/03 03:52:23;;;;;;;4.22;2.88;;;;;;;;;;4832730;29;20037;-81
2022/05/03 03:54:49;;;;;;;4.65;2.80;;;;;;;;;;4816061;29;20114;-82
2022/05/03 03:57:15;;;;;;;5.85;2.90;;;;;;;;;;4821033;29;20078;-81
2022/05/03 03:59:41;;;;;;;5.53;3.05;;;;;;;;;;4820985;29;20038;-82
2022/05/03 04:02:06;;;;;;;5.47;3.17;;;;;;;;;;4822001;29;20473;-83
2022/05/03 04:04:37;;;;;;;4.28;3.00;;;;;;;;;;4821814;29;20078;-81
2022/05/03 04:07:03;;;;;;;4.80;3.22;;;;;;;;;;4838407;29;20042;-86
2022/05/03 04:09:29;;;;;;;5.07;3.42;;;;;;;;;;4817980;29;20038;-82
2022/05/03 04:11:54;;;;;;;4.57;3.20;;;;;;;;;;4816391;29;20045;-85
2022/05/03 04:14:19;;;;;;;5.28;3.00;;;;;;;;;;4821837;29;20551;-81
2022/05/03 04:16:46;;;;;;;5.18;3.20;;;;;;;;;;4821201;29;20514;-82
2022/05/03 04:19:12;;;;;;;4.72;3.03;;;;;;;;;;4830910;29;20501;-81
2022/05/03 04:21:38;;;;;;;4.80;3.00;;;;;;;;;;4817022;29;20068;-86
2022/05/03 04:24:03;;;;;;;4.78;3.03;;;;;;;;;;4820774;29;20045;-81
2022/05/03 04:26:29;;;;;;;4.63;3.22;;;;;;;;;;4814711;29;20037;-81
2022/05/03 04:29:02;;;;;;;5.80;3.20;;;;;;;;;;4834195;29;20037;-83
2022/05/03 04:31:28;;;;;;;5.05;3.47;;;;;;;;;;4822119;29;20036;-81
2022/05/03 04:33:54;;;;;;;4.88;3.13;;;;;;;;;;4822300;29;20073;-81
2022/05/03 04:36:21;;;;;;;5.47;3.25;;;;;;;;;;4821219;29;20068;-82
2022/05/03 04:38:47;;;;;;;5.32;3.33;;;;;;;;;;4823085;29;20438;-83
2022/05/03 04:41:12;;;;;;;5.38;3.80;;;;;;;;;;4817499;29;20028;-85
2022/05/03 04:43:37;;;;;;;7.93;3.55;;;;;;;;;;4822709;29;20117;-83
2022/05/03 04:46:03;;;;;;;5.18;3.17;;;;;;;;;;4818909;29;20026;-80
2022/05/03 04:48:28;;;;;;;5.60;3.40;;;;;;;;;;4823207;29;20038;-80
2022/05/03 04:50:53;;;;;;;6.15;3.58;;;;;;;;;;4819094;29;20026;-81
2022/05/03 04:53:19;;;;;;;5.57;3.33;;;;;;;;;;4827060;29;20033;-80
2022/05/03 04:55:45;;;;;;;6.40;3.60;;;;;;;;;;4815734;29;20097;-82
2022/05/03 04:58:10;;;;;;;4.75;3.22;;;;;;;;;;4826038;29;20057;-83
2022/05/03 05:00:36;;;;;;;6.05;3.47;;;;;;;;;;4830619;29;20044;-85
2022/05/03 05:03:01;;;;;;;5.10;3.45;;;;;;;;;;4822501;29;20094;-82
2022/05/03 05:05:26;;;;;;;7.60;3.83;;;;;;;;;;4817125;29;20391;-82
2022/05/03 05:07:52;;;;;;;6.35;3.72;;;;;;;;;;4816340;29;20030;-83
2022/05/03 05:10:23;;;;;;;6.30;3.40;;;;;;;;;;4838346;29;20497;-80
2022/05/03 05:12:49;;;;;;;6.10;3.33;;;;;;;;;;4817133;29;20094;-81
2022/05/03 05:15:15;;;;;;;5.07;3.67;;;;;;;;;;4818535;29;20908;-83
2022/05/03 05:17:40;;;;;;;5.18;3.50;;;;;;;;;;4829381;29;20421;-83
2022/05/03 05:20:06;;;;;;;4.90;3.33;;;;;;;;;;4816584;29;20113;-83
2022/05/03 05:22:32;;;;;;;5.63;3.33;;;;;;;;;;4831492;29;20041;-84
2022/05/03 05:24:57;;;;;;;7.53;4.10;;;;;;;;;;4814990;29;20076;-83
2022/05/03 05:27:22;;;;;;;7.15;3.90;;;;;;;;;;4824922;29;20485;-86
2022/05/03 05:29:48;;;;;;;5.60;3.63;;;;;;;;;;4834506;29;20035;-83
2022/05/03 05:32:13;;;;;;;6.68;3.80;;;;;;;;;;4815369;29;20038;-81
2022/05/03 05:34:38;;;;;;;7.03;3.83;;;;;;;;;;4823645;29;20041;-86
2022/05/03 05:37:04;;;;;;;5.55;3.97;;;;;;;;;;4833579;29;20034;-81
2022/05/03 05:39:29;;;;;;;6.70;3.92;;;;;;;;;;4826388;29;20033;-81
2022/05/03 05:41:56;;;;;;;7.47;4.07;;;;;;;;;;4818891;29;20034;-82
2022/05/03 05:47:09;;;;;;;5.53;3.92;;;;;;;;;;4827429;29;20052;-83
2022/05/03 05:49:34;;;;;;;5.55;3.90;;;;;;;;;;4822957;29;20037;-81
2022/05/03 05:54:44;;;;;;;6.60;3.53;;;;;;;;;;4836666;29;20045;-85
2022/05/03 05:57:10;;;;;;;6.25;4.15;;;;;;;;;;4821198;29;20037;-83
2022/05/03 05:59:35;;;;;;;6.63;4.13;;;;;;;;;;4820858;29;20098;-85
2022/05/03 06:02:01;;;;;;;5.63;3.83;;;;;;;;;;4815535;29;20036;-81
2022/05/03 06:04:29;;;;;;;5.72;3.95;;;;;;;;;;4823873;29;20036;-80
2022/05/03 06:06:57;;;;;;;5.78;3.58;;;;;;;;;;4816725;29;20129;-81
2022/05/03 06:09:23;;;;;;;6.45;3.55;;;;;;;;;;4824430;29;20556;-86
2022/05/03 06:11:49;;;;;;;5.15;3.70;;;;;;;;;;4824980;29;20183;-81
2022/05/03 06:14:14;;;;;;;5.25;3.72;;;;;;;;;;4816134;29;20030;-81
2022/05/03 06:16:54;;;;;;;5.70;3.55;;;;;;;;;;4838961;29;20063;-83
2022/05/03 06:19:20;;;;;;;5.53;3.47;;;;;;;;;;4821890;29;20037;-81
2022/05/03 06:21:46;;;;;;;5.05;3.47;;;;;;;;;;4818175;29;20090;-85
2022/05/03 06:24:12;;;;;;;5.53;3.63;;;;;;;;;;4816255;29;20121;-85
2022/05/03 06:26:38;;;;;;;6.70;3.35;;;;;;;;;;4820222;29;20029;-81
2022/05/03 06:29:06;;;;;;;5.05;3.42;;;;;;;;;;4819963;29;20510;-84
2022/05/03 06:31:32;;;;;;;4.95;3.67;;;;;;;;;;4831910;29;20070;-81
2022/05/03 06:33:58;;;;;;;5.05;3.40;;;;;;;;;;4814094;29;20038;-83
2022/05/03 06:36:23;;;;;;;4.97;3.40;;;;;;;;;;4811544;29;20048;-85
2022/05/03 06:38:49;;;;;;;5.93;3.80;;;;;;;;;;4811220;29;20026;-83
2022/05/03 06:41:16;;;;;;;5.35;3.80;;;;;;;;;;4820242;29;20089;-82
2022/05/03 06:43:42;;;;;;;5.07;3.22;;;;;;;;;;4819738;29;20065;-81
2022/05/03 06:46:08;;;;;;;5.70;3.40;;;;;;;;;;4823840;29;20133;-81
2022/05/03 06:48:33;;;;;;;7.05;3.47;;;;;;;;;;4822413;29;20033;-82
2022/05/03 06:50:59;;;;;;;5.68;3.55;;;;;;;;;;4810228;29;20034;-87
2022/05/03 06:53:24;;;;;;;6.03;3.58;;;;;;;;;;4816490;29;20512;-81
2022/05/03 06:55:50;;;;;;;6.95;3.42;;;;;;;;;;4815420;29;20591;-82
2022/05/03 06:58:15;;;;;;;5.35;3.05;;;;;;;;;;4817083;29;20038;-87
2022/05/03 07:00:40;;;;;;;4.45;3.10;;;;;;;;;;4817352;29;20026;-85
2022/05/03 07:03:06;;;;;;;6.90;3.55;;;;;;;;;;4819801;29;20030;-84
2022/05/03 07:05:31;;;;;;;5.70;3.70;;;;;;;;;;4827766;29;20120;-81
2022/05/03 07:07:57;;;;;;;6.00;3.63;;;;;;;;;;4822027;29;20038;-79
2022/05/03 07:10:22;;;;;;;5.55;3.53;;;;;;;;;;4818307;29;20033;-82
2022/05/03 07:12:50;;;;;;;5.38;3.45;;;;;;;;;;4832770;29;20488;-82
2022/05/03 07:15:18;;;;;;;5.88;3.80;;;;;;;;;;4826175;29;20495;-81
2022/05/03 07:23:15;;;;;;;6.93;3.75;;;;;;;;;;4835660;29;20116;-80
2022/05/03 07:25:41;;;;;;;5.20;3.85;;;;;;;;;;4820117;29;20054;-81
2022/05/03 07:28:07;;;;;;;5.95;3.90;;;;;;;;;;4830965;29;20064;-82
2022/05/03 07:30:33;;;;;;;6.95;3.67;;;;;;;;;;4818571;29;20493;-81
2022/05/03 07:32:58;;;;;;;5.78;3.95;;;;;;;;;;4842518;29;20041;-83
2022/05/03 07:35:24;;;;;;;7.10;3.78;;;;;;;;;;4821418;29;20034;-85
2022/05/03 07:37:50;;;;;;;7.15;4.20;;;;;;;;;;4820587;29;20056;-81
2022/05/03 07:40:23;;;;;;;5.82;4.10;;;;;;;;;;4827625;29;20031;-80
2022/05/03 07:42:48;;;;;;;7.53;4.50;;;;;;;;;;4819445;29;20038;-81
2022/05/03 07:45:15;;;;;;;6.07;4.13;;;;;;;;;;4819455;29;20077;-81
2022/05/03 07:47:41;;;;;;;6.75;4.32;;;;;;;;;;4819509;29;20576;-82
2022/05/03 07:50:06;;;;;;;7.90;4.95;;;;;;;;;;4817684;29;20116;-81
2022/05/03 07:52:32;;;;;;;6.50;4.70;;;;;;;;;;4828246;29;20414;-81
2022/05/03 07:54:58;;;;;;;8.25;4.93;;;;;;;;;;4830162;29;20038;-80
2022/05/03 07:57:24;;;;;;;9.63;4.68;;;;;;;;;;4832547;29;20041;-83
2022/05/03 07:59:55;;;;;;;7.75;4.57;;;;;;;;;;4815734;29;20038;-83
2022/05/03 08:02:24;;;;;;;7.55;5.20;;;;;;;;;;4821624;29;20022;-83
2022/05/03 08:04:52;;;;;;;7.40;4.80;;;;;;;;;;4821126;29;20036;-84
2022/05/03 08:07:18;;;;;;;6.65;4.80;;;;;;;;;;4820208;29;20057;-82
2022/05/03 08:09:48;;;;;;;8.90;4.45;;;;;;;;;;4818149;29;20497;-81
2022/05/03 08:12:14;;;;;;;7.60;4.78;;;;;;;;;;4818042;29;20113;-84
2022/05/03 08:14:40;;;;;;;7.43;5.53;;;;;;;;;;4830805;29;20141;-83
2022/05/03 08:17:06;;;;;;;7.70;4.93;;;;;;;;;;4824968;29;20034;-80
2022/05/03 08:19:35;;;;;;;7.90;5.20;;;;;;;;;;4822900;29;20525;-82
2022/05/03 08:22:04;;;;;;;8.35;5.43;;;;;;;;;;4841784;29;20030;-81
2022/05/03 08:24:31;;;;;;;7.22;5.10;;;;;;;;;;4824339;29;20034;-82
2022/05/03 08:27:00;;;;;;;7.38;5.40;;;;;;;;;;4827335;29;20041;-82
2022/05/03 08:29:27;;;;;;;10.23;5.70;;;;;;;;;;4813277;29;20129;-82
2022/05/03 08:32:06;;;;;;;11.65;5.72;;;;;;;;;;4828724;29;20048;-84
2022/05/03 08:34:32;;;;;;;7.03;5.07;;;;;;;;;;4824957;29;20409;-81
2022/05/03 08:42:45;;;;;;;10.05;4.97;;;;;;;;;;4837534;29;20557;-82
2022/05/03 08:45:10;;;;;;;9.13;5.43;;;;;;;;;;4821246;29;20057;-85
2022/05/03 08:47:38;;;;;;;8.13;5.20;;;;;;;;;;4830788;29;20030;-84
2022/05/03 08:50:10;;;;;;;7.05;4.40;;;;;;;;;;4821571;29;20030;-80
2022/05/03 08:52:45;;;;;;;6.78;4.63;;;;;;;;;;4825893;29;20156;-82
2022/05/03 08:55:11;;;;;;;7.72;5.13;;;;;;;;;;4824855;29;20124;-83
2022/05/03 08:57:42;;;;;;;7.47;5.03;;;;;;;;;;4825672;29;20121;-83
2022/05/03 09:00:12;;;;;;;8.32;4.95;;;;;;;;;;4824780;29;20390;-81
2022/05/03 09:02:46;;;;;;;7.75;5.20;;;;;;;;;;4840785;29;20518;-82
2022/05/03 09:05:13;;;;;;;9.77;5.53;;;;;;;;;;4823103;29;20041;-83
2022/05/03 09:07:39;;;;;;;8.07;5.22;;;;;;;;;;4828436;29;20189;-85
2022/05/03 09:10:15;;;;;;;7.15;5.10;;;;;;;;;;4830752;29;20460;-85
2022/05/03 09:12:44;;;;;;;8.50;5.60;;;;;;;;;;4833010;29;20033;-84
2022/05/03 09:15:14;;;;;;;7.85;5.57;;;;;;;;;;4823504;29;20041;-83
2022/05/03 09:17:45;;;;;;;8.25;4.93;;;;;;;;;;4826598;29;20034;-82
2022/05/03 09:24:05;;;;;;;9.50;5.53;;;;;;;;;;4841412;29;20556;-83
2022/05/03 09:26:49;;;;;;;9.27;6.00;;;;;;;;;;4821338;29;20087;-85
2022/05/03 09:29:16;;;;;;;8.63;6.22;;;;;;;;;;4837835;29;20053;-84
2022/05/03 09:31:47;;;;;;;8.98;5.75;;;;;;;;;;4825195;29;20085;-83
2022/05/03 09:34:46;;;;;;;9.27;6.30;;;;;;;;;;4840204;29;20041;-83
2022/05/03 09:37:17;;;;;;;9.75;6.72;;;;;;;;;;4799358;29;20048;-85
2022/05/03 09:39:52;;;;;;;10.45;7.07;;;;;;;;;;4843013;29;20058;-84
2022/05/03 09:42:19;;;;;;;9.07;6.78;;;;;;;;;;4834710;29;20116;-85
2022/05/03 09:45:02;;;;;;;10.57;6.25;;;;;;;;;;4820573;29;20077;-81
2022/05/03 09:47:49;;;;;;;10.25;6.75;;;;;;;;;;4838749;29;20032;-83
2022/05/03 09:50:49;;;;;;;11.13;7.00;;;;;;;;;;4818913;29;20050;-82
2022/05/03 09:56:53;;;;;;;;;;;;;;;;;;4780632;29;20423;-82
2022/05/03 09:59:21;;;;;;;9.88;6.20;;;;;;;;;;4779988;29;20392;-82
2022/05/03 10:01:52;;;;;;;9.88;6.68;;;;;;;;;;4785453;29;20042;-84
2022/05/03 10:04:21;;;;;;;10.32;6.10;;;;;;;;;;4760812;30;20167;-83
2022/05/03 10:06:52;;;;;;;10.30;6.45;;;;;;;;;;4747394;30;20534;-83
2022/05/03 10:09:34;;;;;;;;;;;;;;;;;;;;;
2022/05/03 10:12:23;;;;;;;10.05;6.80;;;;;;;;;;4722454;30;20036;-81
2022/05/03 10:14:54;;;;;;;9.15;6.90;;;;;;;;;;4717577;30;20051;-85
2022/05/03 10:20:57;;;;;;;11.90;7.15;;;;;;;;;;4723204;30;20599;-82
2022/05/03 10:30:28;;;;;;;9.05;6.50;;;;;;;;;;4639220;30;20149;-82
2022/05/03 10:33:28;;;;;;;10.95;7.40;;;;;;;;;;4633263;30;20522;-81
2022/05/03 10:35:58;;;;;;;11.57;7.15;;;;;;;;;;4670507;30;20042;-81
2022/05/03 10:39:05;;;;;;;10.57;7.35;;;;;;;;;;4856750;24;20057;-81
2022/05/03 10:44:58;;;;;;;10.93;7.65;;;;;;;;;;4866947;29;20051;-83
2022/05/03 10:48:00;;;;;;;10.25;7.78;;;;;;;;;;4864195;29;20024;-85
2022/05/03 10:54:00;;;;;;;10.10;6.72;;;;;;;;;;4870786;29;20037;-83
2022/05/03 10:56:31;;;;;;;11.38;7.22;;;;;;;;;;4817345;29;20464;-80
2022/05/03 10:59:33;;;;;;;10.85;7.00;;;;;;;;;;4809407;29;21467;-84
2022/05/03 11:02:04;;;;;;;9.65;5.72;;;;;;;;;;4802200;29;20054;-82
2022/05/03 11:04:35;;;;;;;8.57;5.90;;;;;;;;;;4807552;29;20432;-85
2022/05/03 11:07:01;;;;;;;8.77;6.00;;;;;;;;;;4818221;29;20042;-83
2022/05/03 11:09:33;;;;;;;9.43;6.07;;;;;;;;;;4794917;29;20077;-84
2022/05/03 11:12:06;;;;;;;8.25;5.82;;;;;;;;;;4821089;29;20050;-82
2022/05/03 11:14:32;;;;;;;6.90;4.90;;;;;;;;;;4798096;29;20441;-82
2022/05/03 11:17:03;;;;;;;7.40;5.63;;;;;;;;;;4801872;29;20030;-83
2022/05/03 11:19:49;;;;;;;;;;;;;;;;;;;;;
2022/05/03 11:22:35;;;;;;;9.82;6.97;;;;;;;;;;4778052;29;20050;-83
2022/05/03 11:25:12;;;;;;;8.80;6.32;;;;;;;;;;4802009;29;20127;-82
2022/05/03 11:28:07;;;;;;;10.80;6.68;;;;;;;;;;4808736;29;20554;-84
2022/05/03 11:30:35;;;;;;;9.95;7.00;;;;;;;;;;4718056;30;20143;-83
2022/05/03 11:33:07;;;;;;;8.77;6.03;;;;;;;;;;4747471;29;20487;-83
2022/05/03 11:39:05;;;;;;;9.52;5.68;;;;;;;;;;4768363;29;20155;-82
2022/05/03 11:41:37;;;;;;;8.05;5.57;;;;;;;;;;4759895;29;20232;-83
2022/05/03 11:44:09;;;;;;;9.52;6.38;;;;;;;;;;4791721;29;20168;-82
2022/05/03 11:47:07;;;;;;;11.75;8.20;;;;;;;;;;4814364;29;20045;-82
2022/05/03 11:57:08;;;;;;;9.20;6.13;;;;;;;;;;4784034;29;20126;-83
2022/05/03 11:59:41;;;;;;;11.60;7.20;;;;;;;;;;4774371;29;20031;-84
2022/05/03 12:09:51;;;;;;;;;;;;;;;;;;;;;
2022/05/03 12:16:15;;;;;;;9.85;7.07;;;;;;;;;;4864688;29;20053;-84
2022/05/03 12:19:12;;;;;;;10.45;7.50;;;;;;;;;;4839725;29;20033;-83
2022/05/03 12:25:44;;;;;;;9.40;6.30;;;;;;;;;;4702018;30;20477;-80
2022/05/03 12:28:10;;;;;;;7.28;5.30;;;;;;;;;;4704557;30;20040;-79
2022/05/03 12:30:36;;;;;;;9.75;5.40;;;;;;;;;;4736073;30;20152;-82
2022/05/03 12:33:04;;;;;;;6.85;4.40;;;;;;;;;;4807333;29;20048;-81
2022/05/03 12:35:35;;;;;;;8.38;5.45;;;;;;;;;;4842447;29;20425;-76
2022/05/03 12:38:11;;;;;;;8.13;5.38;;;;;;;;;;4854458;29;20789;-76
2022/05/03 12:40:48;;;;;;;7.68;5.60;;;;;;;;;;4851626;29;20042;-82
2022/05/03 12:43:18;;;;;;;8.25;5.45;;;;;;;;;;4855134;29;20112;-78
2022/05/03 12:46:03;;;;;;;8.30;5.32;;;;;;;;;;4853597;29;20478;-77
2022/05/03 12:48:29;;;;;;;9.55;6.18;;;;;;;;;;4851095;29;20057;-75
2022/05/03 12:50:56;;;;;;;8.82;5.82;;;;;;;;;;4855261;29;20013;-79
2022/05/03 12:53:26;;;;;;;9.18;5.60;;;;;;;;;;4839561;29;20409;-82
2022/05/03 12:55:53;;;;;;;7.80;5.15;;;;;;;;;;4844253;29;20037;-75
2022/05/03 12:58:25;;;;;;;7.38;4.85;;;;;;;;;;4839755;29;20454;-81
2022/05/03 13:00:55;;;;;;;6.35;4.35;;;;;;;;;;4853971;29;20162;-79
2022/05/03 13:03:24;;;;;;;6.20;4.30;;;;;;;;;;4838609;29;20029;-81
2022/05/03 13:05:50;;;;;;;6.07;3.40;;;;;;;;;;4839179;29;20043;-78
2022/05/03 13:08:17;;;;;;;6.80;4.47;;;;;;;;;;4857425;29;20025;-82
2022/05/03 13:10:42;;;;;;;6.22;4.20;;;;;;;;;;4837978;29;20053;-79
2022/05/03 13:13:08;;;;;;;8.13;4.78;;;;;;;;;;4857799;29;20093;-76
2022/05/03 13:15:33;;;;;;;8.93;5.72;;;;;;;;;;4837910;29;20097;-77
2022/05/03 13:17:59;;;;;;;10.02;5.28;;;;;;;;;;4838002;29;20029;-81
2022/05/03 13:20:26;;;;;;;17.17;9.43;;;;;;;;;;4841926;29;20351;-79
2022/05/03 13:22:52;;;;;;;20.38;11.60;;;;;;;;;;4838582;29;20065;-80
2022/05/03 13:25:17;;;;;;;21.23;11.32;;;;;;;;;;4838717;29;20439;-77
2022/05/03 13:27:43;;;;;;;20.13;10.73;;;;;;;;;;4847282;29;20386;-78
2022/05/03 13:30:08;;;;;;;17.35;10.65;;;;;;;;;;4840887;29;20086;-82
2022/05/03 13:32:36;;;;;;;17.17;11.25;;;;;;;;;;4853350;29;20041;-77
2022/05/03 13:35:02;;;;;;;19.63;11.50;;;;;;;;;;4838079;29;20362;-77
2022/05/03 13:40:30;;;;;;;19.15;11.88;;;;;;;;;;4857131;29;20052;-83
2022/05/03 13:43:04;;;;;;;21.70;14.40;;;;;;;;;;4841636;29;20035;-78
2022/05/03 13:45:30;;;;;;;20.83;12.23;;;;;;;;;;4854830;29;20029;-79
2022/05/03 13:47:56;;;;;;;23.80;12.05;;;;;;;;;;4856826;29;20477;-82
2022/05/03 13:50:21;;;;;;;23.17;12.68;;;;;;;;;;4840754;29;20144;-83
2022/05/03 13:52:47;;;;;;;20.90;13.15;;;;;;;;;;4836502;29;20070;-82
2022/05/03 13:55:13;;;;;;;20.35;11.82;;;;;;;;;;4852246;29;20033;-76
2022/05/03 13:58:00;;;;;;;19.05;11.93;;;;;;;;;;4854501;29;20029;-81
2022/05/03 14:00:30;;;;;;;20.70;11.80;;;;;;;;;;4850365;29;20037;-82
2022/05/03 14:03:02;;;;;;;18.65;11.90;;;;;;;;;;4851943;29;20033;-84
2022/05/03 14:05:30;;;;;;;18.35;11.30;;;;;;;;;;4838589;29;20037;-80
2022/05/03 14:08:02;;;;;;;18.05;10.68;;;;;;;;;;4852045;29;20029;-83
2022/05/03 14:10:30;;;;;;;16.63;10.75;;;;;;;;;;4850687;29;20044;-83
2022/05/03 14:13:04;;;;;;;19.25;11.07;;;;;;;;;;4854521;29;20029;-81
2022/05/03 14:19:00;;;;;;;18.60;10.75;;;;;;;;;;4834735;29;20052;-83
2022/05/03 14:21:32;;;;;;;20.05;11.32;;;;;;;;;;4814445;29;20046;-82
2022/05/03 14:24:04;;;;;;;19.67;11.35;;;;;;;;;;4826816;29;20030;-86
2022/05/03 14:26:33;;;;;;;18.83;10.23;;;;;;;;;;4839812;29;20078;-83
2022/05/03 14:29:07;;;;;;;19.02;10.63;;;;;;;;;;4819080;29;20045;-82
2022/05/03 14:31:36;;;;;;;22.02;11.35;;;;;;;;;;4828852;29;20041;-81
2022/05/03 14:34:05;;;;;;;18.77;10.68;;;;;;;;;;4828367;29;20052;-82
2022/05/03 14:36:34;;;;;;;19.45;11.27;;;;;;;;;;4840334;29;20034;-81
2022/05/03 14:39:05;;;;;;;20.17;11.45;;;;;;;;;;4839164;29;20046;-83
2022/05/03 14:41:38;;;;;;;20.33;10.65;;;;;;;;;;4836960;29;20034;-86
2022/05/03 14:44:07;;;;;;;16.20;9.88;;;;;;;;;;4838675;29;20448;-83
2022/05/03 14:46:35;;;;;;;20.38;10.38;;;;;;;;;;4837365;29;20030;-82
2022/05/03 14:49:08;;;;;;;16.73;10.40;;;;;;;;;;4851739;29;20040;-87
2022/05/03 14:51:38;;;;;;;17.90;9.88;;;;;;;;;;4846402;29;20391;-86
2022/05/03 14:54:09;;;;;;;17.13;9.85;;;;;;;;;;4854825;29;20045;-85
2022/05/03 15:05:40;;;;;;;15.70;8.90;;;;;;;;;;4853544;29;20040;-85
2022/05/03 15:08:12;;;;;;;13.88;8.95;;;;;;;;;;4838948;29;20045;-81
2022/05/03 15:10:40;;;;;;;17.08;9.85;;;;;;;;;;4854240;29;20512;-82
2022/05/03 15:13:12;;;;;;;17.00;9.73;;;;;;;;;;4848411;29;20029;-81
2022/05/03 15:15:41;;;;;;;16.88;9.75;;;;;;;;;;4838076;29;20025;-82
2022/05/03 15:18:13;;;;;;;17.42;9.40;;;;;;;;;;4831108;29;20038;-82
2022/05/03 15:20:42;;;;;;;16.45;9.55;;;;;;;;;;4837509;29;20053;-80
2022/05/03 15:26:13;;;;;;;16.23;9.15;;;;;;;;;;4854878;29;20036;-82
2022/05/03 15:28:44;;;;;;;17.38;9.13;;;;;;;;;;4836966;29;20030;-82
2022/05/03 15:31:12;;;;;;;15.30;9.07;;;;;;;;;;4839693;29;20026;-82
2022/05/03 15:33:45;;;;;;;15.40;8.98;;;;;;;;;;4834442;29;22245;-86
2022/05/03 15:36:13;;;;;;;16.80;8.48;;;;;;;;;;4839673;29;20036;-83
2022/05/03 15:38:45;;;;;;;13.38;8.32;;;;;;;;;;4836069;29;20061;-83
2022/05/03 15:41:20;;;;;;;13.70;8.25;;;;;;;;;;4837308;29;20038;-83
2022/05/03 15:43:46;;;;;;;14.40;8.77;;;;;;;;;;4855868;29;20388;-82
2022/05/03 15:46:18;;;;;;;15.45;9.13;;;;;;;;;;4847368;29;20035;-82
2022/05/03 15:48:47;;;;;;;13.45;7.97;;;;;;;;;;4840722;29;20500;-81
2022/05/03 15:51:15;;;;;;;13.52;8.50;;;;;;;;;;4842012;29;20500;-83
2022/05/03 15:53:47;;;;;;;13.93;8.30;;;;;;;;;;4838933;29;20120;-83
2022/05/03 15:56:18;;;;;;;13.82;8.43;;;;;;;;;;4850760;29;20036;-83
2022/05/03 15:58:47;;;;;;;13.60;8.82;;;;;;;;;;4836808;29;20484;-83
2022/05/03 16:01:19;;;;;;;14.65;8.10;;;;;;;;;;4842972;29;20732;-80
2022/05/03 16:03:48;;;;;;;14.97;9.20;;;;;;;;;;4838849;29;20112;-83
2022/05/03 16:06:19;;;;;;;12.13;7.75;;;;;;;;;;4855333;29;20413;-84
2022/05/03 16:08:51;;;;;;;12.75;7.60;;;;;;;;;;4833432;29;20044;-82
2022/05/03 16:11:19;;;;;;;14.07;8.50;;;;;;;;;;4841437;29;20026;-85
2022/05/03 16:13:51;;;;;;;13.50;8.07;;;;;;;;;;4857094;29;20033;-85
2022/05/03 16:16:19;;;;;;;18.38;8.52;;;;;;;;;;4857409;29;20043;-80
2022/05/03 16:18:51;;;;;;;15.23;8.35;;;;;;;;;;4840053;29;20029;-82
2022/05/03 16:21:22;;;;;;;12.55;7.72;;;;;;;;;;4854781;29;20034;-82
2022/05/03 16:23:51;;;;;;;12.32;7.85;;;;;;;;;;4857182;29;20037;-85
2022/05/03 16:26:23;;;;;;;16.85;8.55;;;;;;;;;;4856058;29;20067;-84
2022/05/03 16:28:54;;;;;;;12.20;7.43;;;;;;;;;;4840687;29;20112;-82
2022/05/03 16:31:23;;;;;;;13.68;7.43;;;;;;;;;;4844422;29;20081;-82
2022/05/03 16:34:25;;;;;;;13.77;7.28;;;;;;;;;;4854074;29;20454;-83
2022/05/03 16:42:57;;;;;;;11.60;6.63;;;;;;;;;;4859037;29;20086;-79
2022/05/03 16:45:26;;;;;;;12.93;7.35;;;;;;;;;;4855581;29;20040;-80
2022/05/03 16:47:56;;;;;;;10.77;6.50;;;;;;;;;;4837815;29;20385;-85